createdAt,value
2019-04-21T00:01:58.213Z,4.10
2019-04-21T00:04:43.197Z,4.20
2019-04-21T00:07:20.313Z,3.47
2019-04-21T00:09:56.288Z,3.55
2019-04-21T00:12:22.849Z,3.33
2019-04-21T00:14:47.146Z,3.25
2019-04-21T00:17:14.069Z,3.40
2019-04-21T00:19:45.952Z,3.62
2019-04-21T00:22:30.155Z,3.05
2019-04-21T00:25:04.299Z,3.50
2019-04-21T00:27:33.442Z,3.67
2019-04-21T00:30:10.707Z,3.27
2019-04-21T00:32:35.492Z,3.45
2019-04-21T00:35:02.554Z,3.55
2019-04-21T00:37:49.372Z,3.40
2019-04-21T00:40:16.158Z,3.50
2019-04-21T00:42:48.440Z,4.10
2019-04-21T00:45:22.281Z,3.55
2019-04-21T00:47:58.771Z,4.15
2019-04-21T00:50:34.272Z,3.08
2019-04-21T00:53:22.496Z,3.08
2019-04-21T00:55:44.463Z,3.45
2019-04-21T00:58:17.588Z,3.35
2019-04-21T01:00:51.105Z,3.58
2019-04-21T01:03:20.571Z,3.37
2019-04-21T01:05:52.850Z,3.50
2019-04-21T01:08:21.460Z,3.75
2019-04-21T01:10:47.805Z,3.12
2019-04-21T01:13:27.294Z,3.83
2019-04-21T01:15:59.097Z,3.60
2019-04-21T01:18:34.203Z,3.20
2019-04-21T01:20:42.558Z,3.98
2019-04-21T01:23:12.837Z,2.92
2019-04-21T01:25:57.167Z,3.77
2019-04-21T01:28:29.332Z,3.17
2019-04-21T01:31:05.716Z,3.20
2019-04-21T01:36:08.261Z,4.50
2019-04-21T01:38:52.435Z,3.92
2019-04-21T01:41:21.108Z,4.10
2019-04-21T01:43:45.734Z,3.98
2019-04-21T01:46:14.168Z,3.77
2019-04-21T01:48:42.888Z,3.72
2019-04-21T01:51:18.736Z,3.70
2019-04-21T01:54:03.287Z,4.22
2019-04-21T01:56:30.429Z,3.75
2019-04-21T01:58:53.911Z,3.85
2019-04-21T02:01:33.527Z,3.72
2019-04-21T02:04:22.726Z,3.72
2019-04-21T02:06:39.113Z,3.58
2019-04-21T02:09:14.012Z,4.00
2019-04-21T02:11:52.051Z,3.47
2019-04-21T02:14:20.767Z,4.10
2019-04-21T02:16:48.262Z,3.67
2019-04-21T02:19:18.264Z,4.00
2019-04-21T02:21:44.291Z,3.95
2019-04-21T02:24:33.336Z,3.37
2019-04-21T02:27:04.684Z,4.05
2019-04-21T02:29:37.630Z,3.50
2019-04-21T02:32:11.067Z,3.67
2019-04-21T02:37:28.493Z,3.58
2019-04-21T02:39:51.389Z,3.50
2019-04-21T02:42:07.904Z,3.55
2019-04-21T02:44:52.098Z,3.17
2019-04-21T02:47:31.386Z,3.80
2019-04-21T02:49:59.567Z,3.47
2019-04-21T02:52:31.944Z,3.50
2019-04-21T02:55:01.226Z,3.60
2019-04-21T02:57:26.870Z,4.15
2019-04-21T03:05:28.463Z,4.05
2019-04-21T03:08:00.648Z,4.28
2019-04-21T03:13:06.029Z,4.05
2019-04-21T03:18:07.566Z,4.50
2019-04-21T03:20:36.498Z,3.80
2019-04-21T03:23:15.389Z,4.15
2019-04-21T03:38:19.057Z,3.67
2019-04-21T03:40:47.135Z,4.08
2019-04-21T03:43:22.675Z,4.15
2019-04-21T03:48:27.132Z,3.70
2019-04-21T03:53:24.746Z,4.58
2019-04-21T03:56:14.862Z,3.75
2019-04-21T03:58:53.054Z,4.08
2019-04-21T04:01:05.987Z,4.22
2019-04-21T04:04:06.138Z,4.12
2019-04-21T04:06:28.380Z,4.80
2019-04-21T04:09:19.427Z,5.53
2019-04-21T04:11:45.681Z,5.30
2019-04-21T04:16:57.081Z,5.72
2019-04-21T04:19:18.779Z,5.22
2019-04-21T04:21:56.822Z,4.95
2019-04-21T04:31:47.435Z,4.42
2019-04-21T04:34:39.136Z,4.75
2019-04-21T04:37:05.406Z,4.87
2019-04-21T04:42:26.269Z,4.80
2019-04-21T04:47:20.514Z,4.45
2019-04-21T04:54:59.373Z,5.33
2019-04-21T04:57:45.182Z,4.20
2019-04-21T05:00:01.731Z,4.80
2019-04-21T05:05:09.070Z,4.58
2019-04-21T05:07:34.231Z,4.65
2019-04-21T05:10:17.895Z,4.97
2019-04-21T05:12:29.291Z,5.22
2019-04-21T05:20:18.596Z,5.55
2019-04-21T05:22:36.711Z,6.55
2019-04-21T05:24:58.000Z,5.72
2019-04-21T05:27:33.401Z,5.08
2019-04-21T05:30:22.121Z,5.95
2019-04-21T05:32:54.170Z,4.87
2019-04-21T05:35:39.162Z,5.42
2019-04-21T05:38:10.435Z,4.83
2019-04-21T05:40:39.873Z,4.72
2019-04-21T05:43:21.302Z,4.55
2019-04-21T05:45:53.544Z,4.22
2019-04-21T05:50:55.497Z,5.12
2019-04-21T05:56:04.962Z,4.33
2019-04-21T05:58:31.717Z,4.17
2019-04-21T06:03:47.656Z,3.47
2019-04-21T06:06:13.758Z,4.45
2019-04-21T06:08:53.697Z,3.80
2019-04-21T06:13:51.553Z,3.47
2019-04-21T06:16:13.792Z,4.92
2019-04-21T06:18:53.167Z,5.08
2019-04-21T06:21:18.885Z,3.67
2019-04-21T06:23:51.479Z,4.15
2019-04-21T06:29:10.196Z,3.00
2019-04-21T06:31:57.803Z,4.72
2019-04-21T06:34:00.227Z,3.50
2019-04-21T06:36:45.149Z,3.35
2019-04-21T06:39:12.279Z,3.20
2019-04-21T06:41:38.029Z,5.08
2019-04-21T06:49:17.304Z,3.90
2019-04-21T06:51:48.325Z,3.47
2019-04-21T06:54:22.034Z,6.25
2019-04-21T06:56:51.609Z,5.75
2019-04-21T06:59:26.596Z,5.15
2019-04-21T07:04:31.774Z,5.78
2019-04-21T07:06:59.272Z,6.45
2019-04-21T07:09:31.441Z,6.17
2019-04-21T07:12:06.190Z,4.78
2019-04-21T07:14:44.226Z,7.00
2019-04-21T07:17:15.988Z,6.47
2019-04-21T07:22:19.426Z,5.97
2019-04-21T07:24:46.254Z,6.22
2019-04-21T07:27:16.296Z,4.97
2019-04-21T07:29:53.457Z,6.22
2019-04-21T07:32:20.603Z,4.97
2019-04-21T07:34:51.168Z,4.22
2019-04-21T07:37:25.488Z,4.80
2019-04-21T07:39:50.574Z,5.08
2019-04-21T07:42:25.415Z,5.50
2019-04-21T07:44:53.533Z,5.10
2019-04-21T07:47:27.091Z,4.78
2019-04-21T07:50:16.211Z,5.25
2019-04-21T07:52:53.405Z,5.35
2019-04-21T07:57:44.184Z,5.85
2019-04-21T08:00:30.800Z,5.20
2019-04-21T08:02:54.036Z,4.90
2019-04-21T08:05:26.390Z,6.00
2019-04-21T08:10:26.279Z,5.20
2019-04-21T08:13:04.223Z,5.37
2019-04-21T08:15:34.055Z,5.78
2019-04-21T08:18:06.109Z,4.90
2019-04-21T08:20:35.262Z,4.85
2019-04-21T08:23:13.177Z,5.28
2019-04-21T08:25:57.377Z,5.87
2019-04-21T08:28:08.936Z,4.55
2019-04-21T08:30:47.791Z,4.22
2019-04-21T08:33:30.574Z,4.90
2019-04-21T08:38:21.916Z,4.87
2019-04-21T08:40:56.308Z,4.65
2019-04-21T08:43:40.016Z,4.72
2019-04-21T08:46:02.061Z,5.33
2019-04-21T08:48:29.083Z,5.17
2019-04-21T08:51:14.206Z,5.37
2019-04-21T08:53:34.898Z,8.20
2019-04-21T08:56:25.678Z,6.33
2019-04-21T08:59:13.811Z,5.95
2019-04-21T09:01:55.479Z,5.33
2019-04-21T09:04:24.537Z,6.97
2019-04-21T09:07:20.009Z,6.72
2019-04-21T09:09:30.907Z,5.80
2019-04-21T09:11:59.671Z,6.03
2019-04-21T09:14:37.072Z,5.83
2019-04-21T09:17:03.203Z,6.42
2019-04-21T09:19:44.618Z,11.75
2019-04-21T09:22:07.136Z,9.93
2019-04-21T09:24:41.205Z,9.38
2019-04-21T09:27:10.051Z,8.70
2019-04-21T09:29:35.893Z,8.90
2019-04-21T09:32:00.043Z,8.45
2019-04-21T09:34:36.077Z,7.62
2019-04-21T09:37:17.128Z,7.22
2019-04-21T09:39:38.379Z,7.28
2019-04-21T09:42:06.534Z,6.67
2019-04-21T09:44:40.465Z,8.30
2019-04-21T09:47:09.188Z,7.42
2019-04-21T09:49:41.520Z,7.17
2019-04-21T09:52:18.617Z,6.55
2019-04-21T09:54:54.832Z,6.58
2019-04-21T09:57:27.591Z,6.67
2019-04-21T09:59:55.962Z,6.20
2019-04-21T10:02:31.025Z,6.37
2019-04-21T10:04:50.635Z,6.37
2019-04-21T10:07:26.528Z,6.70
2019-04-21T10:09:54.620Z,7.60
2019-04-21T10:12:25.550Z,5.92
2019-04-21T10:14:55.904Z,5.72
2019-04-21T10:17:27.793Z,6.35
2019-04-21T10:19:58.731Z,6.67
2019-04-21T10:22:31.000Z,5.97
2019-04-21T10:25:02.857Z,6.22
2019-04-21T10:27:33.149Z,7.45
2019-04-21T10:30:05.729Z,7.90
2019-04-21T10:32:36.478Z,7.28
2019-04-21T10:35:08.391Z,6.17
2019-04-21T10:37:50.817Z,6.72
2019-04-21T10:40:12.214Z,5.85
2019-04-21T10:42:42.520Z,6.28
2019-04-21T10:45:14.732Z,7.08
2019-04-21T10:47:45.067Z,5.95
2019-04-21T10:50:16.268Z,6.50
2019-04-21T10:53:07.029Z,7.75
2019-04-21T10:55:54.273Z,5.87
2019-04-21T10:58:14.201Z,5.65
2019-04-21T11:00:46.231Z,8.55
2019-04-21T11:03:33.277Z,8.10
2019-04-21T11:06:08.634Z,6.30
2019-04-21T11:08:44.131Z,7.78
2019-04-21T11:11:12.124Z,5.12
2019-04-21T11:13:42.403Z,6.75
2019-04-21T11:16:13.116Z,6.40
2019-04-21T11:18:44.106Z,6.65
2019-04-21T11:21:14.501Z,9.10
2019-04-21T11:23:45.874Z,6.97
2019-04-21T11:26:16.140Z,7.55
2019-04-21T11:28:47.268Z,7.65
2019-04-21T11:31:18.818Z,6.30
2019-04-21T11:33:49.183Z,6.47
2019-04-21T11:36:19.557Z,8.73
2019-04-21T11:39:06.203Z,9.73
2019-04-21T11:43:55.016Z,6.35
2019-04-21T11:46:26.656Z,6.22
2019-04-21T11:48:58.037Z,7.30
2019-04-21T11:51:28.974Z,9.10
2019-04-21T11:53:59.340Z,11.30
2019-04-21T11:56:30.502Z,11.48
2019-04-21T11:59:01.701Z,11.08
2019-04-21T12:01:33.799Z,8.80
2019-04-21T12:04:05.414Z,6.35
2019-04-21T12:06:41.574Z,8.88
2019-04-21T12:09:09.549Z,9.08
2019-04-21T12:11:41.030Z,7.37
2019-04-21T12:14:14.103Z,8.28
2019-04-21T12:16:44.594Z,8.65
2019-04-21T12:19:14.725Z,6.40
2019-04-21T12:21:53.084Z,5.87
2019-04-21T12:24:17.894Z,6.87
2019-04-21T12:26:48.021Z,5.87
2019-04-21T12:29:18.899Z,7.00
2019-04-21T12:31:57.214Z,7.80
2019-04-21T12:34:28.047Z,8.00
2019-04-21T12:36:59.131Z,7.20
2019-04-21T12:39:30.506Z,6.12
2019-04-21T12:42:00.892Z,7.65
2019-04-21T12:44:31.666Z,8.38
2019-04-21T12:47:01.833Z,6.70
2019-04-21T12:49:32.202Z,8.13
2019-04-21T12:52:03.731Z,8.33
2019-04-21T12:54:35.394Z,8.08
2019-04-21T12:57:07.668Z,5.90
2019-04-21T12:59:39.515Z,6.10
2019-04-21T13:02:09.780Z,7.92
2019-04-21T13:04:40.096Z,6.37
2019-04-21T13:07:10.315Z,6.55
2019-04-21T13:09:40.306Z,7.53
2019-04-21T13:12:11.082Z,7.25
2019-04-21T13:14:42.114Z,5.45
2019-04-21T13:17:13.143Z,6.90
2019-04-21T13:19:43.488Z,7.30
2019-04-21T13:22:14.117Z,5.90
2019-04-21T13:24:44.630Z,5.85
2019-04-21T13:27:15.623Z,7.25
2019-04-21T13:29:46.250Z,7.15
2019-04-21T13:32:16.583Z,6.15
2019-04-21T13:34:47.770Z,4.95
2019-04-21T13:37:19.384Z,7.12
2019-04-21T13:40:19.092Z,6.53
2019-04-21T13:45:00.944Z,7.47
2019-04-21T13:47:30.593Z,7.70
2019-04-21T13:50:02.890Z,7.00
2019-04-21T13:52:33.205Z,6.17
2019-04-21T13:55:05.476Z,6.08
2019-04-21T13:57:36.566Z,5.70
2019-04-21T14:00:08.974Z,7.92
2019-04-21T14:02:40.649Z,6.92
2019-04-21T14:05:13.449Z,7.72
2019-04-21T14:07:43.983Z,5.95
2019-04-21T14:10:16.038Z,5.85
2019-04-21T14:12:46.761Z,6.62
2019-04-21T14:15:18.428Z,6.70
2019-04-21T14:17:48.986Z,6.15
2019-04-21T14:20:19.921Z,6.67
2019-04-21T14:22:50.054Z,5.28
2019-04-21T14:28:26.228Z,7.08
2019-04-21T14:30:56.563Z,6.42
2019-04-21T14:33:27.812Z,6.90
2019-04-21T14:35:58.894Z,6.80
2019-04-21T14:38:29.142Z,5.45
2019-04-21T14:40:59.878Z,5.87
2019-04-21T14:43:30.181Z,7.35
2019-04-21T14:46:15.228Z,5.78
2019-04-21T14:49:03.431Z,6.83
2019-04-21T14:51:38.878Z,5.35
2019-04-21T14:54:26.911Z,6.60
2019-04-21T14:56:57.672Z,8.10
2019-04-21T14:59:28.851Z,7.12
2019-04-21T15:01:59.970Z,5.55
2019-04-21T15:04:31.546Z,6.05
2019-04-21T15:07:03.242Z,6.75
2019-04-21T15:09:35.872Z,7.33
2019-04-21T15:12:07.839Z,7.47
2019-04-21T15:14:38.221Z,6.35
2019-04-21T15:17:09.093Z,5.53
2019-04-21T15:19:42.882Z,6.35
2019-04-21T15:22:12.278Z,5.70
2019-04-21T15:24:42.617Z,5.83
2019-04-21T15:27:12.841Z,7.10
2019-04-21T15:29:43.053Z,6.70
2019-04-21T15:32:14.777Z,5.90
2019-04-21T15:34:46.247Z,7.67
2019-04-21T15:37:17.804Z,6.70
2019-04-21T15:39:48.837Z,6.90
2019-04-21T15:42:18.965Z,6.62
2019-04-21T15:44:50.405Z,5.67
2019-04-21T15:47:21.942Z,6.03
2019-04-21T15:50:02.940Z,5.58
2019-04-21T15:52:27.914Z,6.75
2019-04-21T15:55:03.260Z,6.25
2019-04-21T15:57:35.529Z,7.03
2019-04-21T16:00:08.826Z,5.72
2019-04-21T16:02:44.527Z,5.97
2019-04-21T16:05:16.922Z,6.20
2019-04-21T16:07:47.950Z,5.87
2019-04-21T16:10:33.344Z,5.60
2019-04-21T16:12:51.761Z,6.00
2019-04-21T16:15:24.169Z,5.22
2019-04-21T16:17:55.236Z,5.40
2019-04-21T16:20:25.931Z,4.12
2019-04-21T16:22:56.847Z,4.92
2019-04-21T16:25:28.445Z,5.67
2019-04-21T16:27:59.504Z,4.75
2019-04-21T16:30:30.819Z,5.25
2019-04-21T16:33:01.957Z,4.60
2019-04-21T16:35:32.058Z,4.50
2019-04-21T16:38:02.821Z,4.22
2019-04-21T16:40:46.811Z,4.25
2019-04-21T16:43:08.086Z,4.37
2019-04-21T16:45:39.128Z,4.72
2019-04-21T16:48:09.577Z,4.03
2019-04-21T16:50:39.714Z,4.05
2019-04-21T16:53:12.248Z,4.37
2019-04-21T16:56:02.751Z,4.03
2019-04-21T16:58:38.794Z,3.90
2019-04-21T17:01:19.734Z,4.08
2019-04-21T17:03:48.610Z,4.20
2019-04-21T17:06:19.372Z,4.22
2019-04-21T17:08:50.600Z,4.15
2019-04-21T17:11:28.705Z,4.30
2019-04-21T17:13:54.053Z,3.83
2019-04-21T17:19:05.142Z,4.10
2019-04-21T17:21:28.086Z,4.10
2019-04-21T17:23:58.943Z,4.33
2019-04-21T17:26:29.258Z,3.92
2019-04-21T17:29:00.605Z,4.08
2019-04-21T17:31:30.839Z,3.75
2019-04-21T17:34:08.612Z,4.17
2019-04-21T17:36:34.808Z,3.98
2019-04-21T17:39:06.839Z,4.00
2019-04-21T17:41:42.489Z,4.20
2019-04-21T17:44:10.538Z,3.92
2019-04-21T17:46:50.009Z,4.08
2019-04-21T17:49:14.969Z,3.70
2019-04-21T17:51:57.270Z,4.12
2019-04-21T17:54:33.842Z,4.05
2019-04-21T18:00:00.106Z,4.20
2019-04-21T18:02:22.941Z,3.77
2019-04-21T18:04:57.848Z,4.35
2019-04-21T18:07:27.549Z,3.70
2019-04-21T18:12:29.211Z,3.60
2019-04-21T18:14:59.217Z,3.58
2019-04-21T18:17:18.643Z,4.00
2019-04-21T18:19:51.290Z,4.05
2019-04-21T18:22:23.970Z,3.85
2019-04-21T18:27:30.022Z,4.50
2019-04-21T18:30:04.384Z,4.90
2019-04-21T18:32:39.038Z,3.67
2019-04-21T18:35:20.884Z,4.70
2019-04-21T18:38:04.472Z,4.08
2019-04-21T18:43:38.328Z,4.15
2019-04-21T18:48:17.296Z,4.20
2019-04-21T18:50:47.854Z,4.70
2019-04-21T18:53:23.865Z,4.60
2019-04-21T18:58:15.883Z,4.40
2019-04-21T19:00:48.784Z,4.65
2019-04-21T19:03:27.334Z,4.67
2019-04-21T19:05:58.289Z,4.80
2019-04-21T19:08:51.380Z,4.47
2019-04-21T19:11:16.643Z,5.53
2019-04-21T19:14:17.569Z,5.25
2019-04-21T19:17:00.836Z,4.90
2019-04-21T19:19:37.963Z,4.83
2019-04-21T19:21:33.438Z,4.45
2019-04-21T19:24:17.969Z,4.37
2019-04-21T19:29:19.703Z,4.20
2019-04-21T19:31:49.760Z,4.67
2019-04-21T19:34:07.757Z,4.45
2019-04-21T19:36:33.141Z,3.80
2019-04-21T19:39:12.840Z,4.10
2019-04-21T19:41:51.954Z,4.55
2019-04-21T19:44:28.200Z,3.95
2019-04-21T19:47:01.340Z,4.20
2019-04-21T19:49:34.999Z,6.10
2019-04-21T19:51:53.981Z,4.65
2019-04-21T19:54:26.136Z,4.67
2019-04-21T19:56:49.410Z,4.17
2019-04-21T19:59:31.879Z,4.12
2019-04-21T20:01:51.437Z,4.47
2019-04-21T20:04:31.844Z,4.37
2019-04-21T20:07:03.013Z,4.25
2019-04-21T20:09:40.788Z,4.42
2019-04-21T20:12:10.699Z,4.20
2019-04-21T20:14:56.047Z,3.83
2019-04-21T20:17:13.737Z,4.47
2019-04-21T20:19:34.189Z,4.30
2019-04-21T20:22:05.285Z,3.83
2019-04-21T20:24:39.322Z,3.92
2019-04-21T20:27:15.586Z,4.37
2019-04-21T20:29:57.532Z,4.03
2019-04-21T20:32:30.573Z,3.95
2019-04-21T20:35:09.360Z,4.35
2019-04-21T20:37:33.946Z,3.92
2019-04-21T20:39:54.871Z,4.08
2019-04-21T20:42:30.678Z,4.92
2019-04-21T20:45:24.956Z,4.30
2019-04-21T20:47:34.535Z,3.65
2019-04-21T20:50:11.395Z,4.75
2019-04-21T20:52:47.932Z,4.08
2019-04-21T20:55:11.858Z,4.50
2019-04-21T20:57:41.931Z,4.45
2019-04-21T21:00:18.761Z,4.20
2019-04-21T21:02:52.073Z,4.10
2019-04-21T21:05:23.348Z,4.12
2019-04-21T21:07:56.924Z,4.23
2019-04-21T21:10:31.468Z,4.22
2019-04-21T21:13:08.840Z,4.45
2019-04-21T21:15:30.294Z,4.60
2019-04-21T21:18:15.556Z,4.60
2019-04-21T21:20:36.847Z,5.53
2019-04-21T21:23:02.913Z,4.40
2019-04-21T21:25:45.231Z,4.78
2019-04-21T21:28:04.286Z,4.65
2019-04-21T21:30:37.619Z,4.78
2019-04-21T21:33:17.227Z,4.42
2019-04-21T21:35:41.106Z,4.20
2019-04-21T21:38:23.985Z,4.08
2019-04-21T21:40:51.405Z,3.62
2019-04-21T21:43:13.121Z,4.50
2019-04-21T21:45:47.574Z,4.05
2019-04-21T21:48:26.393Z,4.50
2019-04-21T21:50:53.666Z,4.70
2019-04-21T21:53:21.573Z,4.92
2019-04-21T21:55:48.791Z,5.55
2019-04-21T21:58:25.245Z,4.95
2019-04-21T22:00:58.489Z,4.45
2019-04-21T22:03:31.833Z,4.28
2019-04-21T22:06:01.893Z,4.03
2019-04-21T22:08:30.262Z,4.45
2019-04-21T22:11:03.196Z,4.25
2019-04-21T22:13:46.161Z,4.80
2019-04-21T22:16:10.382Z,4.17
2019-04-21T22:18:59.906Z,4.67
2019-04-21T22:21:26.368Z,4.40
2019-04-21T22:23:50.639Z,4.20
2019-04-21T22:26:15.484Z,4.37
2019-04-21T22:28:45.701Z,5.42
2019-04-21T22:31:22.419Z,4.35
2019-04-21T22:33:52.727Z,4.55
2019-04-21T22:36:32.888Z,4.90
2019-04-21T22:39:09.239Z,5.55
2019-04-21T22:41:30.965Z,3.80
2019-04-21T22:43:55.913Z,5.03
2019-04-21T22:46:28.424Z,4.67
2019-04-21T22:49:04.983Z,5.37
2019-04-21T22:51:37.505Z,4.92
2019-04-21T22:54:02.233Z,5.83
2019-04-21T22:56:34.112Z,4.67
2019-04-21T22:59:10.868Z,4.78
2019-04-21T23:01:42.475Z,4.05
2019-04-21T23:04:08.906Z,5.03
2019-04-21T23:06:41.294Z,4.50
2019-04-21T23:09:13.232Z,4.00
2019-04-21T23:11:48.254Z,4.22
2019-04-21T23:14:16.872Z,4.08
2019-04-21T23:16:51.722Z,4.47
2019-04-21T23:19:32.195Z,4.55
2019-04-21T23:22:10.184Z,4.47
2019-04-21T23:24:46.900Z,4.45
2019-04-21T23:27:09.778Z,4.55
2019-04-21T23:29:53.823Z,4.80
2019-04-21T23:32:14.898Z,4.53
2019-04-21T23:34:35.822Z,4.58
2019-04-21T23:37:08.899Z,4.35
2019-04-21T23:39:35.501Z,4.40
2019-04-21T23:42:06.424Z,3.90
2019-04-21T23:44:41.493Z,4.65
2019-04-21T23:47:11.769Z,4.80
2019-04-21T23:49:52.146Z,4.45
2019-04-21T23:52:15.533Z,4.17
2019-04-21T23:54:43.346Z,4.40
2019-04-21T23:57:20.836Z,4.30
2019-04-21T23:59:51.334Z,4.58
